sensor_id;sensor_type;location;lat;lon;timestamp;temperature;humidity
10062;DHT22;5070;52.382;5.270;2023-06-26T00:00:11;27.50;70.30
10062;DHT22;5070;52.382;5.270;2023-06-26T00:02:40;27.50;69.50
10062;DHT22;5070;52.382;5.270;2023-06-26T00:05:08;27.50;69.30
10062;DHT22;5070;52.382;5.270;2023-06-26T00:07:37;27.50;69.30
10062;DHT22;5070;52.382;5.270;2023-06-26T00:10:06;27.50;69.10
10062;DHT22;5070;52.382;5.270;2023-06-26T00:12:34;27.50;69.20
10062;DHT22;5070;52.382;5.270;2023-06-26T00:15:03;27.50;69.00
10062;DHT22;5070;52.382;5.270;2023-06-26T00:17:31;27.50;69.20
10062;DHT22;5070;52.382;5.270;2023-06-26T00:20:06;27.50;69.00
10062;DHT22;5070;52.382;5.270;2023-06-26T00:22:38;27.50;69.00
10062;DHT22;5070;52.382;5.270;2023-06-26T00:25:07;27.50;69.00
10062;DHT22;5070;52.382;5.270;2023-06-26T00:27:36;27.50;68.90
10062;DHT22;5070;52.382;5.270;2023-06-26T00:30:04;27.50;68.90
10062;DHT22;5070;52.382;5.270;2023-06-26T00:32:32;27.50;69.00
10062;DHT22;5070;52.382;5.270;2023-06-26T00:35:04;27.50;69.10
10062;DHT22;5070;52.382;5.270;2023-06-26T00:37:32;27.50;68.80
10062;DHT22;5070;52.382;5.270;2023-06-26T00:40:01;27.50;68.90
10062;DHT22;5070;52.382;5.270;2023-06-26T00:42:32;27.50;68.70
10062;DHT22;5070;52.382;5.270;2023-06-26T00:45:00;27.50;68.90
10062;DHT22;5070;52.382;5.270;2023-06-26T00:47:29;27.50;68.80
10062;DHT22;5070;52.382;5.270;2023-06-26T00:49:58;27.50;68.80
10062;DHT22;5070;52.382;5.270;2023-06-26T00:52:30;27.50;68.80
10062;DHT22;5070;52.382;5.270;2023-06-26T00:54:59;27.50;68.90
10062;DHT22;5070;52.382;5.270;2023-06-26T00:57:27;27.50;68.90
10062;DHT22;5070;52.382;5.270;2023-06-26T00:59:57;27.50;68.90
10062;DHT22;5070;52.382;5.270;2023-06-26T01:02:26;27.50;68.90
10062;DHT22;5070;52.382;5.270;2023-06-26T01:05:01;27.50;68.90
10062;DHT22;5070;52.382;5.270;2023-06-26T01:07:36;27.50;68.90
10062;DHT22;5070;52.382;5.270;2023-06-26T01:10:05;27.50;68.80
10062;DHT22;5070;52.382;5.270;2023-06-26T01:12:33;27.40;68.60
10062;DHT22;5070;52.382;5.270;2023-06-26T01:15:02;27.40;68.50
10062;DHT22;5070;52.382;5.270;2023-06-26T01:17:31;27.40;68.40
10062;DHT22;5070;52.382;5.270;2023-06-26T01:20:00;27.50;68.50
10062;DHT22;5070;52.382;5.270;2023-06-26T01:22:36;27.50;68.30
10062;DHT22;5070;52.382;5.270;2023-06-26T01:25:18;27.50;69.20
10062;DHT22;5070;52.382;5.270;2023-06-26T01:27:52;27.50;68.20
10062;DHT22;5070;52.382;5.270;2023-06-26T01:30:23;27.40;67.70
10062;DHT22;5070;52.382;5.270;2023-06-26T01:32:52;27.40;68.00
10062;DHT22;5070;52.382;5.270;2023-06-26T01:35:22;27.40;67.70
10062;DHT22;5070;52.382;5.270;2023-06-26T01:37:50;27.40;67.30
10062;DHT22;5070;52.382;5.270;2023-06-26T01:40:18;27.40;68.40
10062;DHT22;5070;52.382;5.270;2023-06-26T01:42:46;27.40;67.40
10062;DHT22;5070;52.382;5.270;2023-06-26T01:45:23;27.40;67.20
10062;DHT22;5070;52.382;5.270;2023-06-26T01:47:52;27.40;67.50
10062;DHT22;5070;52.382;5.270;2023-06-26T01:50:26;27.40;67.70
10062;DHT22;5070;52.382;5.270;2023-06-26T01:53:02;27.40;67.70
10062;DHT22;5070;52.382;5.270;2023-06-26T01:55:35;27.40;68.20
10062;DHT22;5070;52.382;5.270;2023-06-26T01:58:06;27.40;67.50
10062;DHT22;5070;52.382;5.270;2023-06-26T02:00:37;27.40;67.50
10062;DHT22;5070;52.382;5.270;2023-06-26T02:03:05;27.40;67.80
10062;DHT22;5070;52.382;5.270;2023-06-26T02:05:33;27.40;67.60
10062;DHT22;5070;52.382;5.270;2023-06-26T02:08:03;27.40;67.60
10062;DHT22;5070;52.382;5.270;2023-06-26T02:10:32;27.40;67.40
10062;DHT22;5070;52.382;5.270;2023-06-26T02:13:01;27.40;67.60
10062;DHT22;5070;52.382;5.270;2023-06-26T02:15:29;27.40;67.60
10062;DHT22;5070;52.382;5.270;2023-06-26T02:17:58;27.40;67.30
10062;DHT22;5070;52.382;5.270;2023-06-26T02:20:26;27.40;68.00
10062;DHT22;5070;52.382;5.270;2023-06-26T02:22:54;27.40;67.40
10062;DHT22;5070;52.382;5.270;2023-06-26T02:25:22;27.40;67.40
10062;DHT22;5070;52.382;5.270;2023-06-26T02:27:51;27.40;67.50
10062;DHT22;5070;52.382;5.270;2023-06-26T02:30:20;27.40;67.20
10062;DHT22;5070;52.382;5.270;2023-06-26T02:32:49;27.40;67.20
10062;DHT22;5070;52.382;5.270;2023-06-26T02:35:19;27.30;67.00
10062;DHT22;5070;52.382;5.270;2023-06-26T02:37:47;27.30;67.10
10062;DHT22;5070;52.382;5.270;2023-06-26T02:40:15;27.40;67.30
10062;DHT22;5070;52.382;5.270;2023-06-26T02:42:44;27.40;67.30
10062;DHT22;5070;52.382;5.270;2023-06-26T02:45:12;27.40;67.30
10062;DHT22;5070;52.382;5.270;2023-06-26T02:47:40;27.40;67.30
10062;DHT22;5070;52.382;5.270;2023-06-26T02:50:10;27.40;67.30
10062;DHT22;5070;52.382;5.270;2023-06-26T02:53:02;27.40;67.40
10062;DHT22;5070;52.382;5.270;2023-06-26T02:55:30;27.30;67.20
10062;DHT22;5070;52.382;5.270;2023-06-26T02:57:58;27.30;67.20
10062;DHT22;5070;52.382;5.270;2023-06-26T03:00:26;27.30;67.30
10062;DHT22;5070;52.382;5.270;2023-06-26T03:03:00;27.30;67.40
10062;DHT22;5070;52.382;5.270;2023-06-26T03:05:28;27.30;67.30
10062;DHT22;5070;52.382;5.270;2023-06-26T03:07:57;27.30;67.50
10062;DHT22;5070;52.382;5.270;2023-06-26T03:10:26;27.30;67.40
10062;DHT22;5070;52.382;5.270;2023-06-26T03:12:54;27.30;67.40
10062;DHT22;5070;52.382;5.270;2023-06-26T03:15:23;27.30;67.30
10062;DHT22;5070;52.382;5.270;2023-06-26T03:17:51;27.30;67.30
10062;DHT22;5070;52.382;5.270;2023-06-26T03:20:24;27.30;67.30
10062;DHT22;5070;52.382;5.270;2023-06-26T03:22:54;27.30;67.30
10062;DHT22;5070;52.382;5.270;2023-06-26T03:25:23;27.30;67.40
10062;DHT22;5070;52.382;5.270;2023-06-26T03:28:03;27.20;67.30
10062;DHT22;5070;52.382;5.270;2023-06-26T03:30:33;27.30;67.40
10062;DHT22;5070;52.382;5.270;2023-06-26T03:33:01;27.20;67.30
10062;DHT22;5070;52.382;5.270;2023-06-26T03:35:30;27.20;67.30
10062;DHT22;5070;52.382;5.270;2023-06-26T03:37:59;27.30;67.50
10062;DHT22;5070;52.382;5.270;2023-06-26T03:40:28;27.20;67.40
10062;DHT22;5070;52.382;5.270;2023-06-26T03:42:56;27.20;67.30
10062;DHT22;5070;52.382;5.270;2023-06-26T03:45:26;27.20;67.20
10062;DHT22;5070;52.382;5.270;2023-06-26T03:47:54;27.30;67.40
10062;DHT22;5070;52.382;5.270;2023-06-26T03:50:22;27.20;67.60
10062;DHT22;5070;52.382;5.270;2023-06-26T03:52:50;27.30;67.30
10062;DHT22;5070;52.382;5.270;2023-06-26T03:55:21;27.30;67.30
10062;DHT22;5070;52.382;5.270;2023-06-26T03:57:50;27.30;67.20
10062;DHT22;5070;52.382;5.270;2023-06-26T04:00:21;27.20;66.90
10062;DHT22;5070;52.382;5.270;2023-06-26T04:02:54;27.20;67.10
10062;DHT22;5070;52.382;5.270;2023-06-26T04:08:06;27.20;67.20
10062;DHT22;5070;52.382;5.270;2023-06-26T04:10:38;27.20;67.20
10062;DHT22;5070;52.382;5.270;2023-06-26T04:13:06;27.20;67.20
10062;DHT22;5070;52.382;5.270;2023-06-26T04:15:34;27.20;67.20
10062;DHT22;5070;52.382;5.270;2023-06-26T04:18:09;27.20;67.10
10062;DHT22;5070;52.382;5.270;2023-06-26T04:20:39;27.20;67.10
10062;DHT22;5070;52.382;5.270;2023-06-26T04:23:08;27.20;67.10
10062;DHT22;5070;52.382;5.270;2023-06-26T04:25:38;27.20;67.20
10062;DHT22;5070;52.382;5.270;2023-06-26T04:28:06;27.20;67.40
10062;DHT22;5070;52.382;5.270;2023-06-26T04:30:35;27.20;67.40
10062;DHT22;5070;52.382;5.270;2023-06-26T04:33:03;27.20;67.40
10062;DHT22;5070;52.382;5.270;2023-06-26T04:35:33;27.20;67.60
10062;DHT22;5070;52.382;5.270;2023-06-26T04:38:03;27.20;67.50
10062;DHT22;5070;52.382;5.270;2023-06-26T04:40:32;27.20;68.20
10062;DHT22;5070;52.382;5.270;2023-06-26T04:43:00;27.20;67.60
10062;DHT22;5070;52.382;5.270;2023-06-26T04:45:28;27.20;67.60
10062;DHT22;5070;52.382;5.270;2023-06-26T04:47:56;27.20;67.60
10062;DHT22;5070;52.382;5.270;2023-06-26T04:50:24;27.20;67.40
10062;DHT22;5070;52.382;5.270;2023-06-26T04:52:54;27.20;67.50
10062;DHT22;5070;52.382;5.270;2023-06-26T04:55:23;27.20;67.80
10062;DHT22;5070;52.382;5.270;2023-06-26T04:57:52;27.20;68.10
10062;DHT22;5070;52.382;5.270;2023-06-26T05:00:20;27.20;68.20
10062;DHT22;5070;52.382;5.270;2023-06-26T05:02:49;27.20;68.00
10062;DHT22;5070;52.382;5.270;2023-06-26T05:05:26;27.20;68.20
10062;DHT22;5070;52.382;5.270;2023-06-26T05:07:56;27.20;67.80
10062;DHT22;5070;52.382;5.270;2023-06-26T05:10:24;27.20;67.90
10062;DHT22;5070;52.382;5.270;2023-06-26T05:12:52;27.20;67.90
10062;DHT22;5070;52.382;5.270;2023-06-26T05:15:20;27.20;68.20
10062;DHT22;5070;52.382;5.270;2023-06-26T05:17:48;27.20;68.20
10062;DHT22;5070;52.382;5.270;2023-06-26T05:20:16;27.20;69.30
10062;DHT22;5070;52.382;5.270;2023-06-26T05:22:45;27.20;68.60
10062;DHT22;5070;52.382;5.270;2023-06-26T05:25:15;27.20;68.80
10062;DHT22;5070;52.382;5.270;2023-06-26T05:27:46;27.20;68.90
10062;DHT22;5070;52.382;5.270;2023-06-26T05:30:19;27.20;68.80
10062;DHT22;5070;52.382;5.270;2023-06-26T05:32:51;27.20;69.90
10062;DHT22;5070;52.382;5.270;2023-06-26T05:35:21;27.20;70.30
10062;DHT22;5070;52.382;5.270;2023-06-26T05:37:50;27.20;70.50
10062;DHT22;5070;52.382;5.270;2023-06-26T05:40:21;27.20;70.50
10062;DHT22;5070;52.382;5.270;2023-06-26T05:42:50;27.20;70.40
10062;DHT22;5070;52.382;5.270;2023-06-26T05:45:18;27.20;70.40
10062;DHT22;5070;52.382;5.270;2023-06-26T05:47:46;27.20;70.60
10062;DHT22;5070;52.382;5.270;2023-06-26T05:50:18;27.20;70.70
10062;DHT22;5070;52.382;5.270;2023-06-26T05:52:47;27.20;71.10
10062;DHT22;5070;52.382;5.270;2023-06-26T05:55:16;27.20;71.20
10062;DHT22;5070;52.382;5.270;2023-06-26T05:57:47;27.20;71.30
10062;DHT22;5070;52.382;5.270;2023-06-26T06:00:16;27.20;71.00
10062;DHT22;5070;52.382;5.270;2023-06-26T06:02:45;27.20;71.00
10062;DHT22;5070;52.382;5.270;2023-06-26T06:05:15;27.30;70.80
10062;DHT22;5070;52.382;5.270;2023-06-26T06:07:47;27.20;70.60
10062;DHT22;5070;52.382;5.270;2023-06-26T06:10:15;27.20;70.60
10062;DHT22;5070;52.382;5.270;2023-06-26T06:12:43;27.30;70.60
10062;DHT22;5070;52.382;5.270;2023-06-26T06:15:12;27.30;70.60
10062;DHT22;5070;52.382;5.270;2023-06-26T06:17:40;27.30;70.60
10062;DHT22;5070;52.382;5.270;2023-06-26T06:20:11;27.30;71.60
10062;DHT22;5070;52.382;5.270;2023-06-26T06:22:42;27.30;70.40
10062;DHT22;5070;52.382;5.270;2023-06-26T06:25:10;27.30;70.70
10062;DHT22;5070;52.382;5.270;2023-06-26T06:27:38;27.30;70.70
10062;DHT22;5070;52.382;5.270;2023-06-26T06:30:14;27.30;70.20
10062;DHT22;5070;52.382;5.270;2023-06-26T06:32:42;27.30;70.60
10062;DHT22;5070;52.382;5.270;2023-06-26T06:35:10;27.40;71.50
10062;DHT22;5070;52.382;5.270;2023-06-26T06:37:41;27.30;71.30
10062;DHT22;5070;52.382;5.270;2023-06-26T06:40:10;27.30;70.90
10062;DHT22;5070;52.382;5.270;2023-06-26T06:42:38;27.30;70.80
10062;DHT22;5070;52.382;5.270;2023-06-26T06:45:07;27.40;70.60
10062;DHT22;5070;52.382;5.270;2023-06-26T06:47:37;27.40;71.30
10062;DHT22;5070;52.382;5.270;2023-06-26T06:50:05;27.40;70.70
10062;DHT22;5070;52.382;5.270;2023-06-26T06:52:36;27.40;70.20
10062;DHT22;5070;52.382;5.270;2023-06-26T06:55:06;27.40;70.10
10062;DHT22;5070;52.382;5.270;2023-06-26T06:57:38;27.40;70.40
10062;DHT22;5070;52.382;5.270;2023-06-26T07:00:08;27.40;70.50
10062;DHT22;5070;52.382;5.270;2023-06-26T07:02:39;27.40;70.20
10062;DHT22;5070;52.382;5.270;2023-06-26T07:05:07;27.40;70.50
10062;DHT22;5070;52.382;5.270;2023-06-26T07:07:37;27.40;71.30
10062;DHT22;5070;52.382;5.270;2023-06-26T07:10:07;27.40;71.80
10062;DHT22;5070;52.382;5.270;2023-06-26T07:12:36;27.40;72.30
10062;DHT22;5070;52.382;5.270;2023-06-26T07:15:06;27.50;72.30
10062;DHT22;5070;52.382;5.270;2023-06-26T07:17:38;27.50;71.60
10062;DHT22;5070;52.382;5.270;2023-06-26T07:20:07;27.50;72.40
10062;DHT22;5070;52.382;5.270;2023-06-26T07:22:36;27.50;71.30
10062;DHT22;5070;52.382;5.270;2023-06-26T07:25:05;27.50;71.60
10062;DHT22;5070;52.382;5.270;2023-06-26T07:27:36;27.50;71.80
10062;DHT22;5070;52.382;5.270;2023-06-26T07:30:05;27.50;70.20
10062;DHT22;5070;52.382;5.270;2023-06-26T07:32:35;27.50;70.30
10062;DHT22;5070;52.382;5.270;2023-06-26T07:35:05;27.50;70.30
10062;DHT22;5070;52.382;5.270;2023-06-26T07:37:36;27.50;70.70
10062;DHT22;5070;52.382;5.270;2023-06-26T07:40:05;27.50;70.80
10062;DHT22;5070;52.382;5.270;2023-06-26T07:42:33;27.50;71.40
10062;DHT22;5070;52.382;5.270;2023-06-26T07:45:04;27.60;70.80
10062;DHT22;5070;52.382;5.270;2023-06-26T07:47:37;27.60;70.60
10062;DHT22;5070;52.382;5.270;2023-06-26T07:50:07;27.60;70.50
10062;DHT22;5070;52.382;5.270;2023-06-26T07:52:35;27.60;70.50
10062;DHT22;5070;52.382;5.270;2023-06-26T07:55:05;27.60;69.70
10062;DHT22;5070;52.382;5.270;2023-06-26T07:57:34;27.70;70.30
10062;DHT22;5070;52.382;5.270;2023-06-26T08:00:02;27.70;70.80
10062;DHT22;5070;52.382;5.270;2023-06-26T08:02:40;27.70;70.70
10062;DHT22;5070;52.382;5.270;2023-06-26T08:05:09;27.70;70.90
10062;DHT22;5070;52.382;5.270;2023-06-26T08:07:38;27.70;70.90
10062;DHT22;5070;52.382;5.270;2023-06-26T08:10:06;27.70;71.00
10062;DHT22;5070;52.382;5.270;2023-06-26T08:12:34;27.70;71.20
10062;DHT22;5070;52.382;5.270;2023-06-26T08:15:03;27.70;70.70
10062;DHT22;5070;52.382;5.270;2023-06-26T08:17:31;27.70;71.20
10062;DHT22;5070;52.382;5.270;2023-06-26T08:19:59;27.70;71.30
10062;DHT22;5070;52.382;5.270;2023-06-26T08:22:31;27.70;71.20
10062;DHT22;5070;52.382;5.270;2023-06-26T08:24:59;27.70;71.40
10062;DHT22;5070;52.382;5.270;2023-06-26T08:27:28;27.70;71.60
10062;DHT22;5070;52.382;5.270;2023-06-26T08:29:56;27.80;71.60
10062;DHT22;5070;52.382;5.270;2023-06-26T08:32:24;27.70;71.60
10062;DHT22;5070;52.382;5.270;2023-06-26T08:34:53;27.80;71.60
10062;DHT22;5070;52.382;5.270;2023-06-26T08:37:21;27.80;71.60
10062;DHT22;5070;52.382;5.270;2023-06-26T08:39:50;27.80;72.10
10062;DHT22;5070;52.382;5.270;2023-06-26T08:42:19;27.80;72.00
10062;DHT22;5070;52.382;5.270;2023-06-26T08:44:49;27.80;72.00
10062;DHT22;5070;52.382;5.270;2023-06-26T08:47:28;27.80;72.20
10062;DHT22;5070;52.382;5.270;2023-06-26T08:50:03;27.80;71.70
10062;DHT22;5070;52.382;5.270;2023-06-26T08:52:43;27.80;71.90
10062;DHT22;5070;52.382;5.270;2023-06-26T08:55:18;27.80;71.40
10062;DHT22;5070;52.382;5.270;2023-06-26T08:57:49;27.80;70.40
10062;DHT22;5070;52.382;5.270;2023-06-26T09:00:20;27.80;70.20
10062;DHT22;5070;52.382;5.270;2023-06-26T09:03:12;27.80;70.70
10062;DHT22;5070;52.382;5.270;2023-06-26T09:05:41;27.80;70.80
10062;DHT22;5070;52.382;5.270;2023-06-26T09:08:10;27.80;71.60
10062;DHT22;5070;52.382;5.270;2023-06-26T09:10:44;27.80;65.10
10062;DHT22;5070;52.382;5.270;2023-06-26T09:13:15;27.80;68.30
10062;DHT22;5070;52.382;5.270;2023-06-26T09:15:56;27.80;69.80
10062;DHT22;5070;52.382;5.270;2023-06-26T09:18:24;27.80;70.50
10062;DHT22;5070;52.382;5.270;2023-06-26T09:20:53;27.80;71.00
10062;DHT22;5070;52.382;5.270;2023-06-26T09:23:22;27.90;70.00
10062;DHT22;5070;52.382;5.270;2023-06-26T09:25:51;27.90;69.70
10062;DHT22;5070;52.382;5.270;2023-06-26T09:28:20;27.90;69.40
10062;DHT22;5070;52.382;5.270;2023-06-26T09:30:48;27.90;70.60
10062;DHT22;5070;52.382;5.270;2023-06-26T09:33:19;27.90;71.00
10062;DHT22;5070;52.382;5.270;2023-06-26T09:35:47;27.90;71.70
10062;DHT22;5070;52.382;5.270;2023-06-26T09:38:15;27.90;71.60
10062;DHT22;5070;52.382;5.270;2023-06-26T09:40:45;27.90;72.00
10062;DHT22;5070;52.382;5.270;2023-06-26T09:43:14;27.90;72.30
10062;DHT22;5070;52.382;5.270;2023-06-26T09:45:46;27.80;71.20
10062;DHT22;5070;52.382;5.270;2023-06-26T09:48:16;27.90;70.30
10062;DHT22;5070;52.382;5.270;2023-06-26T09:50:46;27.90;71.60
10062;DHT22;5070;52.382;5.270;2023-06-26T09:53:35;27.90;70.70
10062;DHT22;5070;52.382;5.270;2023-06-26T09:56:07;27.90;71.30
10062;DHT22;5070;52.382;5.270;2023-06-26T09:58:36;27.90;70.90
10062;DHT22;5070;52.382;5.270;2023-06-26T10:01:05;27.90;69.90
10062;DHT22;5070;52.382;5.270;2023-06-26T10:03:36;27.90;71.00
10062;DHT22;5070;52.382;5.270;2023-06-26T10:06:09;27.90;71.10
10062;DHT22;5070;52.382;5.270;2023-06-26T10:08:39;27.90;71.60
10062;DHT22;5070;52.382;5.270;2023-06-26T10:11:14;27.90;70.90
10062;DHT22;5070;52.382;5.270;2023-06-26T10:13:48;27.90;71.80
10062;DHT22;5070;52.382;5.270;2023-06-26T10:16:28;27.90;70.70
10062;DHT22;5070;52.382;5.270;2023-06-26T10:19:02;27.90;71.70
10062;DHT22;5070;52.382;5.270;2023-06-26T10:21:31;27.90;71.10
10062;DHT22;5070;52.382;5.270;2023-06-26T10:24:01;27.90;71.00
10062;DHT22;5070;52.382;5.270;2023-06-26T10:26:33;27.90;70.30
10062;DHT22;5070;52.382;5.270;2023-06-26T10:29:07;27.90;71.00
10062;DHT22;5070;52.382;5.270;2023-06-26T10:31:37;27.90;67.40
10062;DHT22;5070;52.382;5.270;2023-06-26T10:34:06;28.00;69.00
10062;DHT22;5070;52.382;5.270;2023-06-26T10:36:35;27.90;68.40
10062;DHT22;5070;52.382;5.270;2023-06-26T10:39:04;28.00;68.80
10062;DHT22;5070;52.382;5.270;2023-06-26T10:41:37;28.00;69.10
10062;DHT22;5070;52.382;5.270;2023-06-26T10:44:18;27.90;69.70
10062;DHT22;5070;52.382;5.270;2023-06-26T10:46:51;28.00;69.90
10062;DHT22;5070;52.382;5.270;2023-06-26T10:49:20;28.00;69.90
10062;DHT22;5070;52.382;5.270;2023-06-26T10:51:50;28.00;70.00
10062;DHT22;5070;52.382;5.270;2023-06-26T10:54:19;28.00;69.10
10062;DHT22;5070;52.382;5.270;2023-06-26T10:56:48;28.00;69.00
10062;DHT22;5070;52.382;5.270;2023-06-26T10:59:20;28.00;69.70
10062;DHT22;5070;52.382;5.270;2023-06-26T11:01:54;27.90;69.50
10062;DHT22;5070;52.382;5.270;2023-06-26T11:04:37;28.00;69.30
10062;DHT22;5070;52.382;5.270;2023-06-26T11:07:17;28.00;68.90
10062;DHT22;5070;52.382;5.270;2023-06-26T11:09:57;28.00;69.70
10062;DHT22;5070;52.382;5.270;2023-06-26T11:12:35;28.00;69.90
10062;DHT22;5070;52.382;5.270;2023-06-26T11:15:07;28.00;69.30
10062;DHT22;5070;52.382;5.270;2023-06-26T11:17:36;28.00;69.10
10062;DHT22;5070;52.382;5.270;2023-06-26T11:20:06;28.00;68.30
10062;DHT22;5070;52.382;5.270;2023-06-26T11:22:36;28.00;67.60
10062;DHT22;5070;52.382;5.270;2023-06-26T11:25:06;28.00;67.90
10062;DHT22;5070;52.382;5.270;2023-06-26T11:27:38;28.00;67.90
10062;DHT22;5070;52.382;5.270;2023-06-26T11:30:09;28.00;67.80
10062;DHT22;5070;52.382;5.270;2023-06-26T11:32:38;28.00;67.70
10062;DHT22;5070;52.382;5.270;2023-06-26T11:35:07;28.00;67.10
10062;DHT22;5070;52.382;5.270;2023-06-26T11:37:36;28.00;66.90
10062;DHT22;5070;52.382;5.270;2023-06-26T11:40:22;28.00;66.70
10062;DHT22;5070;52.382;5.270;2023-06-26T11:42:53;28.10;67.10
10062;DHT22;5070;52.382;5.270;2023-06-26T11:45:23;28.10;66.90
10062;DHT22;5070;52.382;5.270;2023-06-26T11:47:51;28.00;59.80
10062;DHT22;5070;52.382;5.270;2023-06-26T11:50:19;28.00;56.80
10062;DHT22;5070;52.382;5.270;2023-06-26T11:52:53;27.90;54.40
10062;DHT22;5070;52.382;5.270;2023-06-26T11:55:21;27.80;53.20
10062;DHT22;5070;52.382;5.270;2023-06-26T11:57:49;27.70;53.10
10062;DHT22;5070;52.382;5.270;2023-06-26T12:00:18;27.70;52.90
10062;DHT22;5070;52.382;5.270;2023-06-26T12:02:48;27.60;52.70
10062;DHT22;5070;52.382;5.270;2023-06-26T12:05:18;27.50;52.90
10062;DHT22;5070;52.382;5.270;2023-06-26T12:07:47;27.50;53.40
10062;DHT22;5070;52.382;5.270;2023-06-26T12:10:16;27.50;54.60
10062;DHT22;5070;52.382;5.270;2023-06-26T12:12:46;27.50;54.50
10062;DHT22;5070;52.382;5.270;2023-06-26T12:15:15;27.50;54.70
10062;DHT22;5070;52.382;5.270;2023-06-26T12:17:43;27.40;54.10
10062;DHT22;5070;52.382;5.270;2023-06-26T12:20:20;27.40;53.60
10062;DHT22;5070;52.382;5.270;2023-06-26T12:22:49;27.30;53.70
10062;DHT22;5070;52.382;5.270;2023-06-26T12:25:22;27.30;53.50
10062;DHT22;5070;52.382;5.270;2023-06-26T12:27:50;27.30;53.70
10062;DHT22;5070;52.382;5.270;2023-06-26T12:30:18;27.20;53.60
10062;DHT22;5070;52.382;5.270;2023-06-26T12:32:47;27.20;53.60
10062;DHT22;5070;52.382;5.270;2023-06-26T12:35:15;27.20;53.70
10062;DHT22;5070;52.382;5.270;2023-06-26T12:37:46;27.20;53.90
10062;DHT22;5070;52.382;5.270;2023-06-26T12:40:18;27.20;53.80
10062;DHT22;5070;52.382;5.270;2023-06-26T12:42:52;27.20;53.50
10062;DHT22;5070;52.382;5.270;2023-06-26T12:45:27;27.10;53.00
10062;DHT22;5070;52.382;5.270;2023-06-26T12:48:07;27.00;52.90
10062;DHT22;5070;52.382;5.270;2023-06-26T12:50:49;27.00;53.20
10062;DHT22;5070;52.382;5.270;2023-06-26T12:53:18;27.00;53.30
10062;DHT22;5070;52.382;5.270;2023-06-26T12:55:46;27.00;53.40
10062;DHT22;5070;52.382;5.270;2023-06-26T12:58:17;27.00;53.50
10062;DHT22;5070;52.382;5.270;2023-06-26T13:00:45;27.00;53.40
10062;DHT22;5070;52.382;5.270;2023-06-26T13:03:13;27.00;52.90
10062;DHT22;5070;52.382;5.270;2023-06-26T13:05:42;27.00;52.60
10062;DHT22;5070;52.382;5.270;2023-06-26T13:08:12;27.00;52.50
10062;DHT22;5070;52.382;5.270;2023-06-26T13:10:53;27.00;53.00
10062;DHT22;5070;52.382;5.270;2023-06-26T13:13:21;26.90;53.10
10062;DHT22;5070;52.382;5.270;2023-06-26T13:15:55;26.90;53.30
10062;DHT22;5070;52.382;5.270;2023-06-26T13:18:23;26.90;53.20
10062;DHT22;5070;52.382;5.270;2023-06-26T13:20:51;26.90;52.90
10062;DHT22;5070;52.382;5.270;2023-06-26T13:23:19;26.90;53.00
10062;DHT22;5070;52.382;5.270;2023-06-26T13:25:49;26.90;53.80
10062;DHT22;5070;52.382;5.270;2023-06-26T13:28:18;26.90;54.60
10062;DHT22;5070;52.382;5.270;2023-06-26T13:30:47;27.00;55.00
10062;DHT22;5070;52.382;5.270;2023-06-26T13:33:17;27.00;55.20
10062;DHT22;5070;52.382;5.270;2023-06-26T13:35:45;27.00;55.20
10062;DHT22;5070;52.382;5.270;2023-06-26T13:38:15;27.10;55.50
10062;DHT22;5070;52.382;5.270;2023-06-26T13:40:43;27.10;55.10
10062;DHT22;5070;52.382;5.270;2023-06-26T13:43:13;27.10;54.20
10062;DHT22;5070;52.382;5.270;2023-06-26T13:45:42;27.20;55.40
10062;DHT22;5070;52.382;5.270;2023-06-26T13:48:10;27.20;55.80
10062;DHT22;5070;52.382;5.270;2023-06-26T13:50:48;27.20;55.70
10062;DHT22;5070;52.382;5.270;2023-06-26T13:53:21;27.20;56.00
10062;DHT22;5070;52.382;5.270;2023-06-26T13:55:50;27.20;56.10
10062;DHT22;5070;52.382;5.270;2023-06-26T13:58:19;27.20;56.40
10062;DHT22;5070;52.382;5.270;2023-06-26T14:00:49;27.20;57.00
10062;DHT22;5070;52.382;5.270;2023-06-26T14:03:20;27.30;56.70
10062;DHT22;5070;52.382;5.270;2023-06-26T14:05:48;27.20;56.60
10062;DHT22;5070;52.382;5.270;2023-06-26T14:08:17;27.30;56.50
10062;DHT22;5070;52.382;5.270;2023-06-26T14:10:45;27.30;57.20
10062;DHT22;5070;52.382;5.270;2023-06-26T14:13:13;27.30;56.90
10062;DHT22;5070;52.382;5.270;2023-06-26T14:15:43;27.30;56.90
10062;DHT22;5070;52.382;5.270;2023-06-26T14:18:12;27.30;56.80
10062;DHT22;5070;52.382;5.270;2023-06-26T14:20:41;27.30;56.90
10062;DHT22;5070;52.382;5.270;2023-06-26T14:23:09;27.40;57.10
10062;DHT22;5070;52.382;5.270;2023-06-26T14:25:37;27.40;57.40
10062;DHT22;5070;52.382;5.270;2023-06-26T14:28:05;27.40;57.20
10062;DHT22;5070;52.382;5.270;2023-06-26T14:30:36;27.40;57.30
10062;DHT22;5070;52.382;5.270;2023-06-26T14:33:06;27.40;57.20
10062;DHT22;5070;52.382;5.270;2023-06-26T14:35:34;27.40;57.10
10062;DHT22;5070;52.382;5.270;2023-06-26T14:38:02;27.40;57.00
10062;DHT22;5070;52.382;5.270;2023-06-26T14:40:30;27.40;57.30
10062;DHT22;5070;52.382;5.270;2023-06-26T14:42:59;27.40;57.80
10062;DHT22;5070;52.382;5.270;2023-06-26T14:45:27;27.50;57.20
10062;DHT22;5070;52.382;5.270;2023-06-26T14:47:56;27.50;58.00
10062;DHT22;5070;52.382;5.270;2023-06-26T14:50:26;27.50;58.00
10062;DHT22;5070;52.382;5.270;2023-06-26T14:52:54;27.50;57.70
10062;DHT22;5070;52.382;5.270;2023-06-26T14:55:22;27.50;58.00
10062;DHT22;5070;52.382;5.270;2023-06-26T14:57:50;27.50;57.70
10062;DHT22;5070;52.382;5.270;2023-06-26T15:00:19;27.50;57.20
10062;DHT22;5070;52.382;5.270;2023-06-26T15:02:48;27.50;57.70
10062;DHT22;5070;52.382;5.270;2023-06-26T15:05:16;27.50;57.80
10062;DHT22;5070;52.382;5.270;2023-06-26T15:07:45;27.50;57.50
10062;DHT22;5070;52.382;5.270;2023-06-26T15:10:14;27.50;57.50
10062;DHT22;5070;52.382;5.270;2023-06-26T15:12:43;27.50;56.20
10062;DHT22;5070;52.382;5.270;2023-06-26T15:15:11;27.50;56.70
10062;DHT22;5070;52.382;5.270;2023-06-26T15:17:39;27.50;57.00
10062;DHT22;5070;52.382;5.270;2023-06-26T15:20:08;27.50;56.70
10062;DHT22;5070;52.382;5.270;2023-06-26T15:22:36;27.50;56.70
10062;DHT22;5070;52.382;5.270;2023-06-26T15:25:07;27.60;57.20
10062;DHT22;5070;52.382;5.270;2023-06-26T15:27:35;27.60;57.20
10062;DHT22;5070;52.382;5.270;2023-06-26T15:30:05;27.60;56.60
10062;DHT22;5070;52.382;5.270;2023-06-26T15:32:33;27.60;56.00
10062;DHT22;5070;52.382;5.270;2023-06-26T15:35:03;27.60;56.10
10062;DHT22;5070;52.382;5.270;2023-06-26T15:37:31;27.60;56.00
10062;DHT22;5070;52.382;5.270;2023-06-26T15:39:59;27.60;52.10
10062;DHT22;5070;52.382;5.270;2023-06-26T15:42:32;27.60;51.20
10062;DHT22;5070;52.382;5.270;2023-06-26T15:45:00;27.60;51.10
10062;DHT22;5070;52.382;5.270;2023-06-26T15:47:28;27.60;49.80
10062;DHT22;5070;52.382;5.270;2023-06-26T15:49:56;27.50;49.40
10062;DHT22;5070;52.382;5.270;2023-06-26T15:52:25;27.50;49.80
10062;DHT22;5070;52.382;5.270;2023-06-26T15:54:53;27.50;50.00
10062;DHT22;5070;52.382;5.270;2023-06-26T15:57:24;27.50;50.00
10062;DHT22;5070;52.382;5.270;2023-06-26T15:59:54;27.50;49.60
10062;DHT22;5070;52.382;5.270;2023-06-26T16:02:24;27.40;49.40
10062;DHT22;5070;52.382;5.270;2023-06-26T16:04:54;27.40;49.60